sensor_id;sensor_type;location;lat;lon;timestamp;pressure;altitude;pressure_sealevel;temperature;humidity
74798;BME280;63326;45.088;7.658;2023-05-14T00:01:08;98699.19;;;13.48;83.15
74798;BME280;63326;45.088;7.658;2023-05-14T00:03:35;98695.84;;;13.39;84.00
74798;BME280;63326;45.088;7.658;2023-05-14T00:06:03;98709.22;;;13.67;85.75
74798;BME280;63326;45.088;7.658;2023-05-14T00:08:29;98700.41;;;13.39;84.40
74798;BME280;63326;45.088;7.658;2023-05-14T00:10:56;98716.16;;;13.42;84.09
74798;BME280;63326;45.088;7.658;2023-05-14T00:13:23;98707.34;;;13.26;84.15
74798;BME280;63326;45.088;7.658;2023-05-14T00:15:49;98693.88;;;13.26;84.48
74798;BME280;63326;45.088;7.658;2023-05-14T00:18:16;98706.63;;;13.39;83.89
74798;BME280;63326;45.088;7.658;2023-05-14T00:20:43;98713.19;;;13.30;83.92
74798;BME280;63326;45.088;7.658;2023-05-14T00:23:10;98678.03;;;13.10;83.40
74798;BME280;63326;45.088;7.658;2023-05-14T00:25:36;98698.41;;;13.19;84.27
74798;BME280;63326;45.088;7.658;2023-05-14T00:28:03;98690.34;;;13.19;83.61
74798;BME280;63326;45.088;7.658;2023-05-14T00:30:31;98673.22;;;12.99;83.21
74798;BME280;63326;45.088;7.658;2023-05-14T00:32:58;98694.03;;;13.18;83.60
74798;BME280;63326;45.088;7.658;2023-05-14T00:35:24;98676.53;;;13.08;83.58
74798;BME280;63326;45.088;7.658;2023-05-14T00:37:51;98696.56;;;13.20;82.54
74798;BME280;63326;45.088;7.658;2023-05-14T00:40:18;98696.00;;;13.31;82.90
74798;BME280;63326;45.088;7.658;2023-05-14T00:42:45;98699.47;;;13.25;81.16
74798;BME280;63326;45.088;7.658;2023-05-14T00:45:11;98679.69;;;13.11;79.88
74798;BME280;63326;45.088;7.658;2023-05-14T00:47:38;98695.75;;;13.26;81.15
74798;BME280;63326;45.088;7.658;2023-05-14T00:50:06;98691.84;;;13.29;81.07
74798;BME280;63326;45.088;7.658;2023-05-14T00:52:33;98683.94;;;13.27;81.00
74798;BME280;63326;45.088;7.658;2023-05-14T00:55:02;98669.63;;;13.20;79.86
74798;BME280;63326;45.088;7.658;2023-05-14T00:57:29;98683.09;;;13.20;80.79
74798;BME280;63326;45.088;7.658;2023-05-14T00:59:57;98683.84;;;13.14;79.65
74798;BME280;63326;45.088;7.658;2023-05-14T01:02:24;98692.53;;;13.16;78.84
74798;BME280;63326;45.088;7.658;2023-05-14T01:04:52;98680.72;;;13.10;78.89
74798;BME280;63326;45.088;7.658;2023-05-14T01:07:43;98688.00;;;13.16;79.33
74798;BME280;63326;45.088;7.658;2023-05-14T01:10:20;98689.59;;;13.32;80.74
74798;BME280;63326;45.088;7.658;2023-05-14T01:13:47;98678.81;;;13.32;79.19
74798;BME280;63326;45.088;7.658;2023-05-14T01:16:04;98669.22;;;13.23;78.08
74798;BME280;63326;45.088;7.658;2023-05-14T01:18:33;98677.78;;;13.33;79.54
74798;BME280;63326;45.088;7.658;2023-05-14T01:21:00;98660.13;;;13.24;78.92
74798;BME280;63326;45.088;7.658;2023-05-14T01:23:27;98667.97;;;13.19;77.72
74798;BME280;63326;45.088;7.658;2023-05-14T01:25:54;98647.41;;;13.11;78.33
74798;BME280;63326;45.088;7.658;2023-05-14T01:28:28;98641.97;;;13.05;77.61
74798;BME280;63326;45.088;7.658;2023-05-14T01:31:15;98657.97;;;13.13;76.98
74798;BME280;63326;45.088;7.658;2023-05-14T01:33:43;98667.28;;;13.17;77.38
74798;BME280;63326;45.088;7.658;2023-05-14T01:36:14;98667.97;;;13.19;77.28
74798;BME280;63326;45.088;7.658;2023-05-14T01:38:42;98659.41;;;13.15;77.15
74798;BME280;63326;45.088;7.658;2023-05-14T01:41:12;98648.66;;;13.15;76.26
74798;BME280;63326;45.088;7.658;2023-05-14T01:43:40;98659.91;;;13.25;77.82
74798;BME280;63326;45.088;7.658;2023-05-14T01:46:06;98663.41;;;13.19;76.86
74798;BME280;63326;45.088;7.658;2023-05-14T01:48:33;98663.34;;;13.13;77.16
74798;BME280;63326;45.088;7.658;2023-05-14T01:51:00;98629.06;;;12.93;77.62
74798;BME280;63326;45.088;7.658;2023-05-14T01:53:27;98667.28;;;13.10;76.10
74798;BME280;63326;45.088;7.658;2023-05-14T01:55:54;98646.72;;;13.03;77.42
74798;BME280;63326;45.088;7.658;2023-05-14T01:58:21;98646.31;;;13.06;77.89
74798;BME280;63326;45.088;7.658;2023-05-14T02:00:48;98637.88;;;13.09;78.15
74798;BME280;63326;45.088;7.658;2023-05-14T02:03:14;98623.56;;;13.08;80.43
74798;BME280;63326;45.088;7.658;2023-05-14T02:05:41;98645.41;;;13.20;78.61
74798;BME280;63326;45.088;7.658;2023-05-14T02:08:07;98632.28;;;13.10;78.27
74798;BME280;63326;45.088;7.658;2023-05-14T02:10:34;98614.34;;;12.89;78.51
74798;BME280;63326;45.088;7.658;2023-05-14T02:13:02;98618.50;;;12.92;77.65
74798;BME280;63326;45.088;7.658;2023-05-14T02:15:29;98624.56;;;13.01;77.92
74798;BME280;63326;45.088;7.658;2023-05-14T02:17:56;98626.31;;;12.87;78.25
74798;BME280;63326;45.088;7.658;2023-05-14T02:20:22;98626.78;;;12.90;79.20
74798;BME280;63326;45.088;7.658;2023-05-14T02:22:49;98626.56;;;12.92;80.07
74798;BME280;63326;45.088;7.658;2023-05-14T02:25:16;98626.03;;;13.03;80.47
74798;BME280;63326;45.088;7.658;2023-05-14T02:27:43;98636.00;;;13.09;79.85
74798;BME280;63326;45.088;7.658;2023-05-14T02:30:10;98623.94;;;13.05;78.17
74798;BME280;63326;45.088;7.658;2023-05-14T02:32:38;98618.16;;;13.02;80.03
74798;BME280;63326;45.088;7.658;2023-05-14T02:35:05;98631.81;;;13.07;78.28
74798;BME280;63326;45.088;7.658;2023-05-14T02:37:32;98605.69;;;12.94;79.24
74798;BME280;63326;45.088;7.658;2023-05-14T02:40:00;98623.72;;;13.00;78.36
74798;BME280;63326;45.088;7.658;2023-05-14T02:42:26;98603.13;;;12.79;78.95
74798;BME280;63326;45.088;7.658;2023-05-14T02:44:53;98588.16;;;12.70;78.63
74798;BME280;63326;45.088;7.658;2023-05-14T02:47:20;98596.44;;;12.75;78.85
74798;BME280;63326;45.088;7.658;2023-05-14T02:49:47;98604.16;;;12.78;79.38
74798;BME280;63326;45.088;7.658;2023-05-14T02:52:13;98579.47;;;12.68;79.05
74798;BME280;63326;45.088;7.658;2023-05-14T02:54:40;98602.72;;;12.82;79.90
74798;BME280;63326;45.088;7.658;2023-05-14T02:57:07;98605.19;;;12.84;82.22
74798;BME280;63326;45.088;7.658;2023-05-14T02:59:34;98606.84;;;12.78;81.42
74798;BME280;63326;45.088;7.658;2023-05-14T03:02:02;98601.19;;;12.73;81.65
74798;BME280;63326;45.088;7.658;2023-05-14T03:04:29;98595.34;;;12.63;82.52
74798;BME280;63326;45.088;7.658;2023-05-14T03:06:55;98594.09;;;12.59;82.47
74798;BME280;63326;45.088;7.658;2023-05-14T03:09:22;98604.66;;;12.60;83.19
74798;BME280;63326;45.088;7.658;2023-05-14T03:11:49;98602.53;;;12.56;82.80
74798;BME280;63326;45.088;7.658;2023-05-14T03:14:16;98590.91;;;12.49;82.97
74798;BME280;63326;45.088;7.658;2023-05-14T03:16:42;98597.50;;;12.46;83.83
74798;BME280;63326;45.088;7.658;2023-05-14T03:19:10;98591.69;;;12.43;83.66
74798;BME280;63326;45.088;7.658;2023-05-14T03:21:37;98587.75;;;12.45;83.70
74798;BME280;63326;45.088;7.658;2023-05-14T03:24:04;98582.16;;;12.40;84.21
74798;BME280;63326;45.088;7.658;2023-05-14T03:26:31;98564.72;;;12.36;84.48
74798;BME280;63326;45.088;7.658;2023-05-14T03:28:57;98572.22;;;12.40;84.74
74798;BME280;63326;45.088;7.658;2023-05-14T03:31:24;98571.16;;;12.35;83.91
74798;BME280;63326;45.088;7.658;2023-05-14T03:33:51;98583.88;;;12.48;85.06
74798;BME280;63326;45.088;7.658;2023-05-14T03:36:17;98578.28;;;12.49;84.92
74798;BME280;63326;45.088;7.658;2023-05-14T03:38:46;98585.06;;;12.45;84.26
74798;BME280;63326;45.088;7.658;2023-05-14T03:41:14;98586.44;;;12.34;84.31
74798;BME280;63326;45.088;7.658;2023-05-14T03:43:41;98563.41;;;12.25;84.49
74798;BME280;63326;45.088;7.658;2023-05-14T03:46:07;98566.56;;;12.29;83.30
74798;BME280;63326;45.088;7.658;2023-05-14T03:48:35;98577.34;;;12.35;83.66
74798;BME280;63326;45.088;7.658;2023-05-14T03:51:03;98569.00;;;12.24;82.42
74798;BME280;63326;45.088;7.658;2023-05-14T03:53:30;98575.75;;;12.41;83.68
74798;BME280;63326;45.088;7.658;2023-05-14T03:55:57;98574.31;;;12.45;82.60
74798;BME280;63326;45.088;7.658;2023-05-14T03:58:23;98569.13;;;12.37;81.98
74798;BME280;63326;45.088;7.658;2023-05-14T04:00:50;98552.88;;;12.24;81.39
74798;BME280;63326;45.088;7.658;2023-05-14T04:03:16;98561.38;;;12.27;82.53
74798;BME280;63326;45.088;7.658;2023-05-14T04:05:43;98563.81;;;12.22;83.34
74798;BME280;63326;45.088;7.658;2023-05-14T04:08:10;98562.56;;;12.18;84.50
74798;BME280;63326;45.088;7.658;2023-05-14T04:10:37;98574.16;;;12.25;85.01
74798;BME280;63326;45.088;7.658;2023-05-14T04:13:04;98557.41;;;12.23;84.49
74798;BME280;63326;45.088;7.658;2023-05-14T04:15:33;98574.03;;;12.33;85.37
74798;BME280;63326;45.088;7.658;2023-05-14T04:18:05;98571.34;;;12.33;84.95
74798;BME280;63326;45.088;7.658;2023-05-14T04:20:31;98553.91;;;12.23;85.08
74798;BME280;63326;45.088;7.658;2023-05-14T04:22:58;98559.97;;;12.31;83.60
74798;BME280;63326;45.088;7.658;2023-05-14T04:25:25;98564.25;;;12.26;83.78
74798;BME280;63326;45.088;7.658;2023-05-14T04:27:51;98565.75;;;12.28;83.80
74798;BME280;63326;45.088;7.658;2023-05-14T04:30:18;98569.25;;;12.29;83.07
74798;BME280;63326;45.088;7.658;2023-05-14T04:32:45;98564.84;;;12.21;84.15
74798;BME280;63326;45.088;7.658;2023-05-14T04:35:12;98577.81;;;12.39;85.15
74798;BME280;63326;45.088;7.658;2023-05-14T04:37:38;98571.53;;;12.32;82.53
74798;BME280;63326;45.088;7.658;2023-05-14T04:40:07;98567.00;;;12.32;82.44
74798;BME280;63326;45.088;7.658;2023-05-14T04:42:36;98580.53;;;12.46;83.28
74798;BME280;63326;45.088;7.658;2023-05-14T04:45:04;98584.72;;;12.55;85.03
74798;BME280;63326;45.088;7.658;2023-05-14T04:47:31;98573.78;;;12.56;85.78
74798;BME280;63326;45.088;7.658;2023-05-14T04:49:58;98578.81;;;12.66;83.03
74798;BME280;63326;45.088;7.658;2023-05-14T04:52:24;98574.72;;;12.77;82.64
74798;BME280;63326;45.088;7.658;2023-05-14T04:54:51;98576.13;;;12.66;82.38
74798;BME280;63326;45.088;7.658;2023-05-14T04:57:18;98565.97;;;12.61;81.16
74798;BME280;63326;45.088;7.658;2023-05-14T04:59:45;98573.25;;;12.67;81.12
74798;BME280;63326;45.088;7.658;2023-05-14T05:02:11;98568.72;;;12.75;81.22
74798;BME280;63326;45.088;7.658;2023-05-14T05:04:38;98565.00;;;12.76;81.10
74798;BME280;63326;45.088;7.658;2023-05-14T05:07:05;98584.34;;;12.92;80.91
74798;BME280;63326;45.088;7.658;2023-05-14T05:09:31;98579.59;;;12.94;82.46
74798;BME280;63326;45.088;7.658;2023-05-14T05:11:58;98575.28;;;13.00;82.65
74798;BME280;63326;45.088;7.658;2023-05-14T05:14:26;98576.75;;;13.03;82.70
74798;BME280;63326;45.088;7.658;2023-05-14T05:16:53;98584.22;;;13.07;83.05
74798;BME280;63326;45.088;7.658;2023-05-14T05:19:20;98584.66;;;13.11;82.20
74798;BME280;63326;45.088;7.658;2023-05-14T05:21:54;98589.44;;;13.15;81.32
74798;BME280;63326;45.088;7.658;2023-05-14T05:24:21;98590.06;;;13.17;80.20
74798;BME280;63326;45.088;7.658;2023-05-14T05:26:48;98583.50;;;13.20;78.91
74798;BME280;63326;45.088;7.658;2023-05-14T05:29:15;98596.34;;;13.24;78.34
74798;BME280;63326;45.088;7.658;2023-05-14T05:31:42;98585.16;;;13.27;79.79
74798;BME280;63326;45.088;7.658;2023-05-14T05:34:09;98583.94;;;13.30;79.84
74798;BME280;63326;45.088;7.658;2023-05-14T05:36:35;98593.91;;;13.36;79.97
74798;BME280;63326;45.088;7.658;2023-05-14T05:39:02;98585.41;;;13.33;79.44
74798;BME280;63326;45.088;7.658;2023-05-14T05:41:28;98580.44;;;13.30;78.51
74798;BME280;63326;45.088;7.658;2023-05-14T05:43:55;98582.72;;;13.33;79.63
74798;BME280;63326;45.088;7.658;2023-05-14T05:46:22;98598.53;;;13.49;78.89
74798;BME280;63326;45.088;7.658;2023-05-14T05:48:48;98606.19;;;13.59;78.88
74798;BME280;63326;45.088;7.658;2023-05-14T05:51:15;98587.53;;;13.57;78.55
74798;BME280;63326;45.088;7.658;2023-05-14T05:53:42;98584.84;;;13.57;79.51
74798;BME280;63326;45.088;7.658;2023-05-14T05:56:08;98591.91;;;13.65;78.42
74798;BME280;63326;45.088;7.658;2023-05-14T05:58:35;98575.56;;;13.60;77.93
74798;BME280;63326;45.088;7.658;2023-05-14T06:01:02;98590.81;;;13.46;77.65
74798;BME280;63326;45.088;7.658;2023-05-14T06:03:29;98584.41;;;13.47;78.19
74798;BME280;63326;45.088;7.658;2023-05-14T06:05:56;98594.97;;;13.48;79.19
74798;BME280;63326;45.088;7.658;2023-05-14T06:08:23;98596.41;;;13.44;79.50
74798;BME280;63326;45.088;7.658;2023-05-14T06:10:49;98578.53;;;13.23;80.46
74798;BME280;63326;45.088;7.658;2023-05-14T06:13:16;98601.16;;;13.36;79.74
74798;BME280;63326;45.088;7.658;2023-05-14T06:15:43;98594.47;;;13.25;78.05
74798;BME280;63326;45.088;7.658;2023-05-14T06:18:09;98583.22;;;13.15;77.85
74798;BME280;63326;45.088;7.658;2023-05-14T06:20:36;98551.72;;;13.09;79.05
74798;BME280;63326;45.088;7.658;2023-05-14T06:23:03;98584.97;;;13.29;79.04
74798;BME280;63326;45.088;7.658;2023-05-14T06:25:29;98595.97;;;13.34;79.72
74798;BME280;63326;45.088;7.658;2023-05-14T06:27:56;98593.91;;;13.36;80.42
74798;BME280;63326;45.088;7.658;2023-05-14T06:30:23;98595.38;;;13.45;79.67
74798;BME280;63326;45.088;7.658;2023-05-14T06:32:50;98592.69;;;13.45;78.59
74798;BME280;63326;45.088;7.658;2023-05-14T06:35:17;98601.00;;;13.50;77.72
74798;BME280;63326;45.088;7.658;2023-05-14T06:37:44;98592.28;;;13.48;78.35
74798;BME280;63326;45.088;7.658;2023-05-14T06:40:12;98603.31;;;13.60;77.78
74798;BME280;63326;45.088;7.658;2023-05-14T06:42:41;98605.56;;;13.57;77.92
74798;BME280;63326;45.088;7.658;2023-05-14T06:45:08;98601.00;;;13.50;77.59
74798;BME280;63326;45.088;7.658;2023-05-14T06:47:35;98602.66;;;13.51;79.02
74798;BME280;63326;45.088;7.658;2023-05-14T06:50:02;98589.13;;;13.38;78.64
74798;BME280;63326;45.088;7.658;2023-05-14T06:52:29;98602.41;;;13.40;78.63
74798;BME280;63326;45.088;7.658;2023-05-14T06:54:56;98608.19;;;13.37;78.60
74798;BME280;63326;45.088;7.658;2023-05-14T06:57:23;98600.94;;;13.31;79.53
74798;BME280;63326;45.088;7.658;2023-05-14T06:59:50;98585.97;;;13.28;80.07
74798;BME280;63326;45.088;7.658;2023-05-14T07:02:16;98595.56;;;13.37;81.31
74798;BME280;63326;45.088;7.658;2023-05-14T07:04:43;98598.31;;;13.57;80.92
74798;BME280;63326;45.088;7.658;2023-05-14T07:07:09;98600.03;;;13.78;79.77
74798;BME280;63326;45.088;7.658;2023-05-14T07:09:40;98578.06;;;13.88;77.00
74798;BME280;63326;45.088;7.658;2023-05-14T07:12:07;98566.47;;;14.07;76.43
74798;BME280;63326;45.088;7.658;2023-05-14T07:14:34;98588.69;;;14.42;73.21
74798;BME280;63326;45.088;7.658;2023-05-14T07:17:01;98581.84;;;14.66;71.94
74798;BME280;63326;45.088;7.658;2023-05-14T07:19:27;98579.50;;;14.96;72.53
74798;BME280;63326;45.088;7.658;2023-05-14T07:21:56;98590.78;;;15.31;71.41
74798;BME280;63326;45.088;7.658;2023-05-14T07:24:22;98590.28;;;15.54;69.42
74798;BME280;63326;45.088;7.658;2023-05-14T07:26:49;98590.06;;;15.55;68.85
74798;BME280;63326;45.088;7.658;2023-05-14T07:29:16;98581.59;;;15.83;67.56
74798;BME280;63326;45.088;7.658;2023-05-14T07:31:42;98583.09;;;15.79;67.75
74798;BME280;63326;45.088;7.658;2023-05-14T07:34:09;98585.84;;;16.04;67.22
74798;BME280;63326;45.088;7.658;2023-05-14T07:36:37;98582.22;;;16.42;65.95
74798;BME280;63326;45.088;7.658;2023-05-14T07:39:04;98572.22;;;16.18;62.91
74798;BME280;63326;45.088;7.658;2023-05-14T07:41:30;98564.38;;;16.34;62.45
74798;BME280;63326;45.088;7.658;2023-05-14T07:43:57;98546.22;;;16.85;61.95
74798;BME280;63326;45.088;7.658;2023-05-14T07:46:24;98535.75;;;17.55;61.14
74798;BME280;63326;45.088;7.658;2023-05-14T07:48:51;98538.56;;;18.08;57.59
74798;BME280;63326;45.088;7.658;2023-05-14T07:51:17;98536.19;;;18.00;58.10
74798;BME280;63326;45.088;7.658;2023-05-14T07:53:44;98513.66;;;18.11;56.45
74798;BME280;63326;45.088;7.658;2023-05-14T07:56:11;98549.53;;;18.49;54.85
74798;BME280;63326;45.088;7.658;2023-05-14T07:58:37;98542.13;;;18.56;55.19
74798;BME280;63326;45.088;7.658;2023-05-14T08:01:04;98546.53;;;18.80;54.83
74798;BME280;63326;45.088;7.658;2023-05-14T08:03:34;98545.88;;;18.90;53.33
74798;BME280;63326;45.088;7.658;2023-05-14T08:06:01;98554.06;;;18.66;53.78
74798;BME280;63326;45.088;7.658;2023-05-14T08:08:29;98540.94;;;17.75;55.40
74798;BME280;63326;45.088;7.658;2023-05-14T08:10:56;98544.91;;;17.42;57.76
74798;BME280;63326;45.088;7.658;2023-05-14T08:13:22;98526.50;;;16.96;58.45
74798;BME280;63326;45.088;7.658;2023-05-14T08:15:49;98500.72;;;16.75;58.28
74798;BME280;63326;45.088;7.658;2023-05-14T08:18:16;98543.78;;;17.32;57.58
74798;BME280;63326;45.088;7.658;2023-05-14T08:20:43;98536.03;;;17.35;57.90
74798;BME280;63326;45.088;7.658;2023-05-14T08:23:10;98509.28;;;16.72;61.39
74798;BME280;63326;45.088;7.658;2023-05-14T08:25:36;98542.63;;;16.48;62.22
74798;BME280;63326;45.088;7.658;2023-05-14T08:28:03;98555.69;;;15.76;67.90
74798;BME280;63326;45.088;7.658;2023-05-14T08:30:30;98535.91;;;16.07;66.93
74798;BME280;63326;45.088;7.658;2023-05-14T08:32:57;98546.16;;;15.98;68.06
74798;BME280;63326;45.088;7.658;2023-05-14T08:35:24;98538.16;;;16.10;66.18
74798;BME280;63326;45.088;7.658;2023-05-14T08:37:51;98505.16;;;15.76;66.41
74798;BME280;63326;45.088;7.658;2023-05-14T08:40:18;98523.44;;;16.49;63.29
74798;BME280;63326;45.088;7.658;2023-05-14T08:42:45;98540.13;;;16.71;62.96
74798;BME280;63326;45.088;7.658;2023-05-14T08:45:18;98533.47;;;16.67;62.92
74798;BME280;63326;45.088;7.658;2023-05-14T08:47:49;98531.06;;;16.34;64.08
74798;BME280;63326;45.088;7.658;2023-05-14T08:50:17;98525.53;;;16.72;63.05
74798;BME280;63326;45.088;7.658;2023-05-14T08:52:48;98520.72;;;16.92;62.68
74798;BME280;63326;45.088;7.658;2023-05-14T08:55:15;98521.09;;;16.96;61.46
74798;BME280;63326;45.088;7.658;2023-05-14T08:57:42;98523.31;;;16.62;61.88
74798;BME280;63326;45.088;7.658;2023-05-14T09:00:09;98505.38;;;17.95;58.71
74798;BME280;63326;45.088;7.658;2023-05-14T09:02:39;98502.22;;;18.21;55.47
74798;BME280;63326;45.088;7.658;2023-05-14T09:05:07;98483.09;;;18.63;54.59
74798;BME280;63326;45.088;7.658;2023-05-14T09:07:34;98510.38;;;18.45;57.83
74798;BME280;63326;45.088;7.658;2023-05-14T09:10:02;98498.19;;;18.94;54.55
74798;BME280;63326;45.088;7.658;2023-05-14T09:12:29;98495.50;;;18.35;55.66
74798;BME280;63326;45.088;7.658;2023-05-14T09:14:56;98484.13;;;17.20;59.27
74798;BME280;63326;45.088;7.658;2023-05-14T09:17:25;98470.38;;;16.48;60.37
74798;BME280;63326;45.088;7.658;2023-05-14T09:19:53;98490.41;;;16.65;60.72
74798;BME280;63326;45.088;7.658;2023-05-14T09:22:20;98473.63;;;16.75;60.04
74798;BME280;63326;45.088;7.658;2023-05-14T09:25:01;98496.91;;;17.31;59.13
74798;BME280;63326;45.088;7.658;2023-05-14T09:27:29;98468.69;;;16.72;58.96
74798;BME280;63326;45.088;7.658;2023-05-14T09:30:08;98503.78;;;17.15;57.70
74798;BME280;63326;45.088;7.658;2023-05-14T09:32:37;98486.06;;;18.61;52.63
74798;BME280;63326;45.088;7.658;2023-05-14T09:35:16;98463.06;;;19.04;50.61
74798;BME280;63326;45.088;7.658;2023-05-14T09:37:49;98450.81;;;19.47;49.24
74798;BME280;63326;45.088;7.658;2023-05-14T09:40:18;98476.81;;;19.83;49.66
74798;BME280;63326;45.088;7.658;2023-05-14T09:42:46;98464.22;;;20.32;46.45
74798;BME280;63326;45.088;7.658;2023-05-14T09:45:15;98479.91;;;19.75;48.47
74798;BME280;63326;45.088;7.658;2023-05-14T09:47:42;98458.06;;;20.76;45.72
74798;BME280;63326;45.088;7.658;2023-05-14T09:50:10;98464.41;;;20.81;45.20
74798;BME280;63326;45.088;7.658;2023-05-14T09:52:38;98468.88;;;20.70;45.55
74798;BME280;63326;45.088;7.658;2023-05-14T09:55:05;98454.88;;;21.81;42.14
74798;BME280;63326;45.088;7.658;2023-05-14T09:57:32;98472.09;;;21.28;43.69
74798;BME280;63326;45.088;7.658;2023-05-14T10:00:00;98444.00;;;22.61;40.57
74798;BME280;63326;45.088;7.658;2023-05-14T10:02:35;98434.34;;;22.90;40.35
74798;BME280;63326;45.088;7.658;2023-05-14T10:05:07;98455.50;;;22.26;41.17
74798;BME280;63326;45.088;7.658;2023-05-14T10:07:38;98457.56;;;22.46;41.00
74798;BME280;63326;45.088;7.658;2023-05-14T10:10:10;98450.59;;;22.70;40.40
74798;BME280;63326;45.088;7.658;2023-05-14T10:12:39;98437.84;;;22.86;39.41
74798;BME280;63326;45.088;7.658;2023-05-14T10:15:12;98464.69;;;22.89;40.83
74798;BME280;63326;45.088;7.658;2023-05-14T10:17:48;98449.00;;;20.70;43.29
74798;BME280;63326;45.088;7.658;2023-05-14T10:20:15;98458.81;;;20.16;44.01
74798;BME280;63326;45.088;7.658;2023-05-14T10:22:43;98421.84;;;20.36;44.47
74798;BME280;63326;45.088;7.658;2023-05-14T10:25:10;98443.72;;;19.91;44.41
74798;BME280;63326;45.088;7.658;2023-05-14T10:27:37;98437.09;;;19.53;46.07
74798;BME280;63326;45.088;7.658;2023-05-14T10:30:05;98429.22;;;20.80;43.79
74798;BME280;63326;45.088;7.658;2023-05-14T10:32:36;98433.66;;;21.08;42.91
74798;BME280;63326;45.088;7.658;2023-05-14T10:35:15;98417.66;;;21.38;42.02
74798;BME280;63326;45.088;7.658;2023-05-14T10:37:43;98408.38;;;21.39;40.53
74798;BME280;63326;45.088;7.658;2023-05-14T10:40:11;98427.59;;;20.57;42.26
74798;BME280;63326;45.088;7.658;2023-05-14T10:42:38;98409.25;;;20.52;42.90
74798;BME280;63326;45.088;7.658;2023-05-14T10:45:07;98414.03;;;19.90;45.39
74798;BME280;63326;45.088;7.658;2023-05-14T10:47:35;98411.22;;;20.01;46.03
74798;BME280;63326;45.088;7.658;2023-05-14T10:50:04;98408.44;;;20.74;44.73
74798;BME280;63326;45.088;7.658;2023-05-14T10:52:32;98407.09;;;21.25;43.38
74798;BME280;63326;45.088;7.658;2023-05-14T10:55:04;98385.72;;;20.24;44.29
74798;BME280;63326;45.088;7.658;2023-05-14T10:57:35;98417.16;;;20.15;45.09
74798;BME280;63326;45.088;7.658;2023-05-14T11:00:02;98405.34;;;20.26;43.87
74798;BME280;63326;45.088;7.658;2023-05-14T11:02:36;98387.44;;;21.18;41.96
74798;BME280;63326;45.088;7.658;2023-05-14T11:05:05;98387.78;;;20.99;42.15
74798;BME280;63326;45.088;7.658;2023-05-14T11:07:35;98373.03;;;20.74;42.35
74798;BME280;63326;45.088;7.658;2023-05-14T11:10:07;98380.31;;;20.68;41.90
74798;BME280;63326;45.088;7.658;2023-05-14T11:12:36;98368.34;;;21.18;40.47
74798;BME280;63326;45.088;7.658;2023-05-14T11:15:09;98365.22;;;21.63;40.29
74798;BME280;63326;45.088;7.658;2023-05-14T11:17:38;98363.06;;;22.02;38.05
74798;BME280;63326;45.088;7.658;2023-05-14T11:20:06;98356.47;;;23.28;36.25
74798;BME280;63326;45.088;7.658;2023-05-14T11:22:35;98361.13;;;23.33;35.86
74798;BME280;63326;45.088;7.658;2023-05-14T11:25:02;98337.59;;;24.03;35.44
74798;BME280;63326;45.088;7.658;2023-05-14T11:27:32;98340.59;;;24.07;34.65
74798;BME280;63326;45.088;7.658;2023-05-14T11:29:59;98332.44;;;23.51;35.28
74798;BME280;63326;45.088;7.658;2023-05-14T11:32:33;98330.75;;;24.01;34.50
74798;BME280;63326;45.088;7.658;2023-05-14T11:35:00;98321.97;;;25.28;32.56
74798;BME280;63326;45.088;7.658;2023-05-14T11:37:27;98296.63;;;25.07;33.00
74798;BME280;63326;45.088;7.658;2023-05-14T11:39:59;98313.38;;;24.41;33.70
74798;BME280;63326;45.088;7.658;2023-05-14T11:42:26;98326.91;;;23.05;36.07
74798;BME280;63326;45.088;7.658;2023-05-14T11:44:53;98305.06;;;23.51;35.53
74798;BME280;63326;45.088;7.658;2023-05-14T11:47:20;98306.44;;;23.59;35.65
74798;BME280;63326;45.088;7.658;2023-05-14T11:49:48;98313.59;;;22.41;37.01
74798;BME280;63326;45.088;7.658;2023-05-14T11:52:15;98319.75;;;22.84;37.01
74798;BME280;63326;45.088;7.658;2023-05-14T11:54:44;98306.91;;;22.11;37.81
74798;BME280;63326;45.088;7.658;2023-05-14T11:57:14;98311.63;;;20.88;40.98
74798;BME280;63326;45.088;7.658;2023-05-14T11:59:42;98276.50;;;20.91;40.99
74798;BME280;63326;45.088;7.658;2023-05-14T12:02:13;98299.22;;;20.75;41.47
74798;BME280;63326;45.088;7.658;2023-05-14T12:04:40;98283.63;;;20.44;42.00
74798;BME280;63326;45.088;7.658;2023-05-14T12:07:10;98278.66;;;20.40;42.45
74798;BME280;63326;45.088;7.658;2023-05-14T12:09:41;98274.59;;;20.21;42.75
74798;BME280;63326;45.088;7.658;2023-05-14T12:12:11;98268.72;;;20.29;42.84
74798;BME280;63326;45.088;7.658;2023-05-14T12:14:40;98270.31;;;20.25;42.31
74798;BME280;63326;45.088;7.658;2023-05-14T12:17:13;98263.78;;;21.02;41.75
74798;BME280;63326;45.088;7.658;2023-05-14T12:19:41;98257.75;;;22.11;38.83
74798;BME280;63326;45.088;7.658;2023-05-14T12:22:10;98258.66;;;21.85;38.69
74798;BME280;63326;45.088;7.658;2023-05-14T12:24:37;98237.41;;;21.87;38.47
74798;BME280;63326;45.088;7.658;2023-05-14T12:27:05;98261.97;;;21.87;39.16
74798;BME280;63326;45.088;7.658;2023-05-14T12:29:37;98237.81;;;22.11;38.81
74798;BME280;63326;45.088;7.658;2023-05-14T12:32:08;98233.81;;;21.34;40.15
74798;BME280;63326;45.088;7.658;2023-05-14T12:34:35;98234.94;;;21.38;40.16
74798;BME280;63326;45.088;7.658;2023-05-14T12:37:04;98217.09;;;22.25;38.89
74798;BME280;63326;45.088;7.658;2023-05-14T12:39:32;98241.78;;;21.93;39.58
74798;BME280;63326;45.088;7.658;2023-05-14T12:41:59;98230.19;;;22.13;38.75
74798;BME280;63326;45.088;7.658;2023-05-14T12:44:27;98233.25;;;22.32;38.21
74798;BME280;63326;45.088;7.658;2023-05-14T12:46:53;98232.63;;;22.14;37.41
74798;BME280;63326;45.088;7.658;2023-05-14T12:49:20;98197.28;;;22.70;36.20
74798;BME280;63326;45.088;7.658;2023-05-14T12:51:47;98213.41;;;22.82;37.18
74798;BME280;63326;45.088;7.658;2023-05-14T12:54:15;98215.63;;;23.21;35.98
74798;BME280;63326;45.088;7.658;2023-05-14T12:56:42;98200.03;;;23.06;37.09
74798;BME280;63326;45.088;7.658;2023-05-14T12:59:08;98192.56;;;24.42;35.10
74798;BME280;63326;45.088;7.658;2023-05-14T13:01:35;98195.56;;;25.48;33.03
74798;BME280;63326;45.088;7.658;2023-05-14T13:04:04;98210.38;;;23.60;34.70